Time;durP1;ratioP1;P1;durP2;ratioP2;P2;SDS_P1;SDS_P2;PMS_P1;PMS_P2;Temp;Humidity;BMP_temperature;BMP_pressure;BME280_temperature;BME280_humidity;BME280_pressure;Samples;Min_cycle;Max_cycle;Signal;HPM_P1;HPM_P2
2023/04/06 00:01:37;;;;;;;8.83;2.67;;;0.00;95.10;;;;;;5088946;28;20212;-74
2023/04/06 00:04:03;;;;;;;4.53;2.90;;;0.10;95.30;;;;;;5090116;28;20429;-78
2023/04/06 00:06:28;;;;;;;7.77;3.23;;;0.00;95.20;;;;;;5091425;28;20178;-77
2023/04/06 00:08:55;;;;;;;5.33;3.33;;;0.10;95.30;;;;;;5091169;28;20177;-75
2023/04/06 00:11:21;;;;;;;7.40;3.73;;;0.00;95.10;;;;;;5075607;28;20180;-73
2023/04/06 00:13:47;;;;;;;8.80;3.80;;;0.00;95.20;;;;;;5071828;28;20423;-77
2023/04/06 00:16:12;;;;;;;7.33;2.77;;;-0.10;95.30;;;;;;5074142;28;20255;-74
2023/04/06 00:18:40;;;;;;;9.10;3.97;;;-0.20;95.70;;;;;;5073042;28;20184;-74
2023/04/06 00:21:05;;;;;;;12.87;3.80;;;-0.30;96.00;;;;;;5070920;28;20693;-73
2023/04/06 00:23:31;;;;;;;7.20;3.77;;;-0.30;96.20;;;;;;5073355;28;20526;-77
2023/04/06 00:25:57;;;;;;;7.90;2.90;;;-0.30;96.40;;;;;;5073138;28;20624;-74
2023/04/06 00:28:25;;;;;;;6.60;3.70;;;-0.40;96.30;;;;;;5070543;28;20269;-74
2023/04/06 00:30:53;;;;;;;6.20;3.47;;;-0.40;96.50;;;;;;5071290;28;20243;-74
2023/04/06 00:33:20;;;;;;;10.63;4.30;;;-0.30;96.70;;;;;;5068543;28;20434;-77
2023/04/06 00:35:45;;;;;;;5.17;2.90;;;-0.40;97.40;;;;;;5071866;28;20795;-74
2023/04/06 00:38:12;;;;;;;8.60;3.00;;;-0.40;97.50;;;;;;5072866;28;20427;-74
2023/04/06 00:40:39;;;;;;;17.30;3.60;;;-0.40;97.20;;;;;;5070897;28;20239;-76
2023/04/06 00:43:05;;;;;;;5.83;2.97;;;-0.40;97.70;;;;;;5068749;28;20520;-75
2023/04/06 00:45:32;;;;;;;9.00;3.93;;;-0.40;97.50;;;;;;5071663;28;20494;-75
2023/04/06 00:47:57;;;;;;;5.03;2.60;;;-0.40;97.20;;;;;;5074099;28;20419;-73
2023/04/06 00:50:23;;;;;;;9.57;3.00;;;-0.40;97.50;;;;;;5073591;28;20415;-75
2023/04/06 00:52:49;;;;;;;8.43;3.50;;;-0.50;97.50;;;;;;5072064;28;20244;-74
2023/04/06 00:55:15;;;;;;;14.90;4.00;;;-0.40;97.40;;;;;;5072232;28;20304;-76
2023/04/06 00:57:40;;;;;;;5.10;2.83;;;-0.50;97.60;;;;;;5069544;28;20188;-72
2023/04/06 01:00:07;;;;;;;3.93;2.53;;;-0.50;97.50;;;;;;5069634;28;20243;-74
2023/04/06 01:02:32;;;;;;;5.10;2.80;;;-0.50;97.80;;;;;;5070392;28;20621;-76
2023/04/06 01:04:58;;;;;;;5.77;2.97;;;-0.60;97.60;;;;;;5075542;28;20412;-74
2023/04/06 01:07:24;;;;;;;7.17;3.57;;;-0.60;97.60;;;;;;5073076;28;20273;-74
2023/04/06 01:09:52;;;;;;;12.77;4.30;;;-0.70;97.70;;;;;;5073837;28;20256;-75
2023/04/06 01:12:18;;;;;;;6.00;3.47;;;-0.70;97.70;;;;;;5072981;28;20495;-74
2023/04/06 01:14:43;;;;;;;12.63;3.37;;;-0.70;97.50;;;;;;5077578;28;20416;-75
2023/04/06 01:17:09;;;;;;;6.27;3.33;;;-0.70;97.30;;;;;;5081407;28;20222;-75
2023/04/06 01:19:35;;;;;;;5.80;3.80;;;-0.70;97.10;;;;;;5089336;28;20169;-81
2023/04/06 01:22:01;;;;;;;6.13;2.87;;;-0.70;97.10;;;;;;5111464;28;20205;-81
2023/04/06 01:24:27;;;;;;;4.97;3.40;;;-0.80;97.20;;;;;;5094174;28;20446;-80
2023/04/06 01:26:52;;;;;;;8.63;2.83;;;-0.80;97.40;;;;;;5095637;28;20183;-81
2023/04/06 01:29:18;;;;;;;5.50;2.93;;;-0.80;97.40;;;;;;5095676;28;20157;-81
2023/04/06 01:31:44;;;;;;;6.00;3.77;;;-0.80;97.50;;;;;;5092682;28;20239;-80
2023/04/06 01:34:10;;;;;;;6.80;3.50;;;-0.90;97.30;;;;;;5095730;28;20192;-81
2023/04/06 01:36:35;;;;;;;10.03;5.13;;;-0.80;97.70;;;;;;5096153;28;20173;-81
2023/04/06 01:39:01;;;;;;;18.97;3.47;;;-0.90;97.60;;;;;;5094623;28;20172;-81
2023/04/06 01:41:27;;;;;;;8.17;3.27;;;-0.90;97.90;;;;;;5094473;28;20241;-81
2023/04/06 01:43:54;;;;;;;9.10;3.20;;;-0.90;97.80;;;;;;5099140;28;20177;-75
2023/04/06 01:46:20;;;;;;;8.17;3.03;;;-0.90;97.80;;;;;;5070376;28;20174;-74
2023/04/06 01:48:45;;;;;;;7.40;3.50;;;-0.90;97.80;;;;;;5070246;28;20848;-75
2023/04/06 01:51:11;;;;;;;8.00;3.60;;;-0.90;98.00;;;;;;5068696;28;20419;-74
2023/04/06 01:53:37;;;;;;;6.10;3.40;;;-0.90;98.20;;;;;;5067771;28;20177;-74
2023/04/06 01:56:03;;;;;;;5.70;3.00;;;-0.90;98.30;;;;;;5069785;28;20247;-74
2023/04/06 01:58:28;;;;;;;5.90;3.60;;;-0.80;98.50;;;;;;5085037;28;20193;-74
2023/04/06 02:00:54;;;;;;;5.50;3.53;;;-0.80;98.40;;;;;;5068436;28;20181;-74
2023/04/06 02:03:19;;;;;;;9.03;3.20;;;-0.80;98.20;;;;;;5068132;28;20292;-76
2023/04/06 02:05:45;;;;;;;4.73;3.00;;;-0.80;98.00;;;;;;5069658;28;20219;-75
2023/04/06 02:08:11;;;;;;;7.07;3.30;;;-0.80;98.30;;;;;;5069834;28;20207;-74
2023/04/06 02:10:36;;;;;;;6.00;3.53;;;-0.90;98.10;;;;;;5068650;28;20537;-77
2023/04/06 02:13:02;;;;;;;6.03;2.77;;;-0.90;98.00;;;;;;5084216;28;20758;-75
2023/04/06 02:15:28;;;;;;;9.67;3.90;;;-0.80;98.20;;;;;;5069200;28;20572;-77
2023/04/06 02:17:53;;;;;;;7.07;3.30;;;-0.90;98.10;;;;;;5069433;28;20220;-74
2023/04/06 02:20:19;;;;;;;6.03;2.87;;;-1.00;98.30;;;;;;5067424;28;20200;-75
2023/04/06 02:22:45;;;;;;;5.07;2.70;;;-0.90;98.60;;;;;;5083000;28;20204;-74
2023/04/06 02:25:11;;;;;;;5.43;3.23;;;-0.90;98.20;;;;;;5067356;28;20419;-76
2023/04/06 02:27:37;;;;;;;6.67;3.63;;;-0.90;98.50;;;;;;5069658;28;20177;-76
2023/04/06 02:30:04;;;;;;;6.17;3.40;;;-1.00;98.80;;;;;;5083901;28;20437;-74
2023/04/06 02:32:29;;;;;;;7.80;3.80;;;-1.00;98.50;;;;;;5071484;28;20251;-75
2023/04/06 02:34:55;;;;;;;10.47;4.33;;;-1.00;98.50;;;;;;5074445;28;20427;-74
2023/04/06 02:37:21;;;;;;;8.87;4.20;;;-1.00;98.50;;;;;;5077844;28;20181;-75
2023/04/06 02:39:47;;;;;;;11.57;3.20;;;-1.10;98.60;;;;;;5078178;28;20649;-77
2023/04/06 02:42:15;;;;;;;7.40;3.17;;;-1.10;98.80;;;;;;5077162;28;20467;-74
2023/04/06 02:44:41;;;;;;;9.27;4.00;;;-1.10;98.70;;;;;;5075952;28;20177;-76
2023/04/06 02:47:06;;;;;;;8.77;3.60;;;-1.10;98.80;;;;;;5076961;28;20423;-76
2023/04/06 02:49:32;;;;;;;8.97;3.67;;;-1.10;98.80;;;;;;5075283;28;20430;-74
2023/04/06 02:51:58;;;;;;;11.03;4.27;;;-1.10;98.70;;;;;;5075281;28;20207;-75
2023/04/06 02:54:23;;;;;;;5.73;3.17;;;-1.10;98.70;;;;;;5069338;28;20224;-74
2023/04/06 02:56:49;;;;;;;4.27;2.60;;;-1.20;98.70;;;;;;5070491;28;20212;-74
2023/04/06 02:59:14;;;;;;;10.70;3.60;;;-1.20;98.70;;;;;;5086071;28;20212;-75
2023/04/06 03:01:40;;;;;;;7.03;3.70;;;-1.10;98.90;;;;;;5067532;28;20239;-74
2023/04/06 03:04:06;;;;;;;9.90;4.60;;;-1.00;98.90;;;;;;5068743;28;20180;-74
2023/04/06 03:06:31;;;;;;;7.07;4.17;;;-1.10;98.80;;;;;;5068874;28;20550;-74
2023/04/06 03:08:57;;;;;;;9.43;4.40;;;-1.10;98.90;;;;;;5067203;28;20193;-75
2023/04/06 03:11:23;;;;;;;16.10;3.70;;;-1.10;98.70;;;;;;5077287;28;20199;-77
2023/04/06 03:13:48;;;;;;;9.70;4.20;;;-1.20;98.70;;;;;;5089888;28;20201;-79
2023/04/06 03:16:14;;;;;;;5.50;3.53;;;-1.30;98.90;;;;;;5092434;28;20169;-78
2023/04/06 03:18:40;;;;;;;5.47;2.57;;;-1.40;99.00;;;;;;5085126;28;20250;-75
2023/04/06 03:21:05;;;;;;;6.70;3.53;;;-1.50;99.50;;;;;;5068566;28;20246;-74
2023/04/06 03:23:31;;;;;;;5.20;3.17;;;-1.60;99.50;;;;;;5065090;28;20219;-76
2023/04/06 03:25:57;;;;;;;9.40;4.33;;;-1.60;99.60;;;;;;5067269;28;20188;-76
2023/04/06 03:28:22;;;;;;;7.70;4.57;;;-1.70;99.90;;;;;;5068667;28;20223;-75
2023/04/06 03:30:49;;;;;;;10.37;5.50;;;-1.60;99.90;;;;;;5067719;28;20198;-75
2023/04/06 03:33:15;;;;;;;8.50;4.47;;;-1.60;99.90;;;;;;5067360;28;20231;-76
2023/04/06 03:35:40;;;;;;;11.37;4.50;;;-1.60;99.90;;;;;;5068616;28;20849;-75
2023/04/06 03:38:06;;;;;;;8.37;4.87;;;-1.50;99.90;;;;;;5067470;28;20170;-75
2023/04/06 03:40:32;;;;;;;11.40;4.00;;;-1.60;99.90;;;;;;5064519;28;20181;-77
2023/04/06 03:42:57;;;;;;;6.10;3.90;;;-1.50;99.90;;;;;;5066019;28;20208;-75
2023/04/06 03:45:23;;;;;;;9.73;4.40;;;-1.60;99.90;;;;;;5066619;28;20215;-73
2023/04/06 03:47:49;;;;;;;9.53;4.10;;;-1.60;99.90;;;;;;5067098;28;20241;-75
2023/04/06 03:50:15;;;;;;;10.87;4.00;;;-1.60;99.90;;;;;;5067852;28;20780;-77
2023/04/06 03:52:40;;;;;;;9.67;5.20;;;-1.60;99.90;;;;;;5079982;28;20201;-74
2023/04/06 03:55:07;;;;;;;7.90;4.00;;;-1.50;99.90;;;;;;5082817;28;20180;-78
2023/04/06 03:57:33;;;;;;;20.23;4.70;;;-1.60;99.90;;;;;;5066712;28;20184;-76
2023/04/06 03:59:58;;;;;;;9.43;4.90;;;-1.50;99.90;;;;;;5066372;28;20423;-78
2023/04/06 04:02:24;;;;;;;7.67;4.60;;;-1.60;99.90;;;;;;5064602;28;20665;-75
2023/04/06 04:04:50;;;;;;;11.10;4.80;;;-1.60;99.90;;;;;;5066570;28;20180;-75
2023/04/06 04:07:15;;;;;;;8.57;4.03;;;-1.70;99.90;;;;;;5067941;28;20173;-76
2023/04/06 04:09:41;;;;;;;12.63;3.90;;;-1.80;99.90;;;;;;5065590;28;20230;-75
2023/04/06 04:12:06;;;;;;;6.57;4.00;;;-1.70;99.90;;;;;;5066084;28;20204;-74
2023/04/06 04:14:32;;;;;;;6.63;4.50;;;-1.70;99.90;;;;;;5067110;28;20295;-75
2023/04/06 04:16:58;;;;;;;12.40;4.90;;;-1.70;99.90;;;;;;5084789;28;20188;-75
2023/04/06 04:19:24;;;;;;;8.10;4.50;;;-1.70;99.90;;;;;;5067950;28;20189;-75
2023/04/06 04:21:50;;;;;;;9.30;4.97;;;-1.80;99.90;;;;;;5065336;28;20835;-75
2023/04/06 04:24:16;;;;;;;17.63;6.80;;;-1.80;99.90;;;;;;5067673;28;20177;-75
2023/04/06 04:26:41;;;;;;;18.80;7.50;;;-1.70;99.90;;;;;;5069551;28;20177;-75
2023/04/06 04:29:07;;;;;;;19.57;7.63;;;-1.70;99.90;;;;;;5072334;28;20180;-75
2023/04/06 04:31:33;;;;;;;13.23;6.23;;;-1.80;99.90;;;;;;5071572;28;20735;-75
2023/04/06 04:34:00;;;;;;;14.73;5.40;;;-1.80;99.90;;;;;;5072020;28;20644;-75
2023/04/06 04:36:26;;;;;;;12.67;5.03;;;-1.90;99.90;;;;;;5085239;28;20208;-75
2023/04/06 04:38:52;;;;;;;12.57;3.73;;;-1.90;99.90;;;;;;5069564;28;20938;-75
2023/04/06 04:41:18;;;;;;;7.57;4.07;;;-1.90;99.90;;;;;;5071140;28;20411;-75
2023/04/06 04:43:44;;;;;;;10.83;4.50;;;-2.00;99.90;;;;;;5068191;28;20423;-75
2023/04/06 04:46:10;;;;;;;5.10;3.20;;;-2.00;99.90;;;;;;5085161;28;20412;-74
2023/04/06 04:48:36;;;;;;;12.17;4.70;;;-1.90;99.90;;;;;;5071103;28;20590;-75
2023/04/06 04:51:02;;;;;;;11.83;4.00;;;-1.90;99.90;;;;;;5086721;28;20412;-75
2023/04/06 04:53:27;;;;;;;7.50;3.43;;;-1.90;99.90;;;;;;5070204;28;20205;-75
2023/04/06 04:55:53;;;;;;;6.40;4.00;;;-2.00;99.90;;;;;;5069964;28;20849;-76
2023/04/06 04:58:19;;;;;;;11.43;3.87;;;-2.00;99.90;;;;;;5071408;28;20169;-75
2023/04/06 05:00:46;;;;;;;5.87;4.07;;;-2.00;99.90;;;;;;5068991;28;20193;-75
2023/04/06 05:03:24;;;;;;;9.83;4.70;;;-2.00;99.90;;;;;;5085504;28;20470;-76
2023/04/06 05:05:50;;;;;;;10.17;4.40;;;-2.00;99.90;;;;;;5070754;28;20428;-75
2023/04/06 05:08:16;;;;;;;10.60;5.30;;;-2.00;99.90;;;;;;5069882;28;20420;-76
2023/04/06 05:10:42;;;;;;;6.13;4.00;;;-2.00;99.90;;;;;;5070113;28;20581;-74
2023/04/06 05:13:08;;;;;;;22.20;4.67;;;-1.90;99.90;;;;;;5069756;28;20436;-77
2023/04/06 05:15:38;;;;;;;11.20;4.63;;;-2.00;99.90;;;;;;5070015;28;20422;-77
2023/04/06 05:18:07;;;;;;;9.00;4.80;;;-2.00;99.90;;;;;;5071074;28;20185;-75
2023/04/06 05:20:34;;;;;;;12.00;3.87;;;-1.90;99.90;;;;;;5070769;28;20404;-75
2023/04/06 05:23:00;;;;;;;9.37;4.33;;;-1.90;99.90;;;;;;5072134;28;20462;-73
2023/04/06 05:25:26;;;;;;;7.77;3.80;;;-1.80;99.90;;;;;;5070957;28;20408;-74
2023/04/06 05:27:52;;;;;;;8.07;4.63;;;-1.90;99.90;;;;;;5069775;28;20212;-74
2023/04/06 05:30:18;;;;;;;13.80;4.70;;;-1.80;99.90;;;;;;5069288;28;20500;-74
2023/04/06 05:32:44;;;;;;;8.57;4.83;;;-1.80;99.90;;;;;;5068830;28;20212;-75
2023/04/06 05:35:11;;;;;;;8.43;4.80;;;-1.70;99.90;;;;;;5068968;28;20601;-76
2023/04/06 05:37:36;;;;;;;16.87;7.60;;;-1.60;99.90;;;;;;5068467;28;20516;-74
2023/04/06 05:40:03;;;;;;;30.83;10.90;;;-1.60;99.90;;;;;;5068126;28;20458;-74
2023/04/06 05:42:40;;;;;;;40.47;14.83;;;-1.60;99.90;;;;;;5069714;28;20209;-75
2023/04/06 05:45:07;;;;;;;27.80;12.37;;;-1.60;99.90;;;;;;5065337;28;20415;-75
2023/04/06 05:47:32;;;;;;;25.10;11.00;;;-1.50;99.90;;;;;;5068436;28;20415;-75
2023/04/06 05:49:58;;;;;;;37.60;10.93;;;-1.50;99.90;;;;;;5067638;28;20450;-75
2023/04/06 05:52:24;;;;;;;19.53;8.00;;;-1.50;99.90;;;;;;5069622;28;20288;-74
2023/04/06 05:54:50;;;;;;;10.07;6.60;;;-1.40;99.90;;;;;;5085522;28;20268;-74
2023/04/06 05:57:17;;;;;;;20.47;9.60;;;-1.40;99.90;;;;;;5084855;28;20211;-75
2023/04/06 05:59:43;;;;;;;22.43;7.90;;;-1.30;99.90;;;;;;5085483;28;20438;-75
2023/04/06 06:02:08;;;;;;;15.67;7.37;;;-1.30;99.90;;;;;;5076627;28;20201;-75
2023/04/06 06:04:34;;;;;;;15.83;8.00;;;-1.20;99.90;;;;;;5069158;28;20250;-77
2023/04/06 06:07:00;;;;;;;24.40;8.43;;;-1.20;99.90;;;;;;5069427;28;20235;-77
2023/04/06 06:09:26;;;;;;;31.63;7.33;;;-1.10;99.90;;;;;;5083661;28;20465;-74
2023/04/06 06:11:51;;;;;;;15.57;6.93;;;-1.00;99.90;;;;;;5067898;28;20242;-75
2023/04/06 06:14:17;;;;;;;13.80;6.20;;;-1.00;99.90;;;;;;5065805;28;20185;-74
2023/04/06 06:16:43;;;;;;;13.47;7.37;;;-0.90;99.90;;;;;;5069210;28;20208;-76
2023/04/06 06:19:08;;;;;;;10.40;5.43;;;-0.80;99.90;;;;;;5067639;28;20185;-76
2023/04/06 06:21:34;;;;;;;12.67;6.50;;;-0.60;99.90;;;;;;5066124;28;20197;-74
2023/04/06 06:24:00;;;;;;;12.70;5.70;;;-0.60;99.90;;;;;;5067636;28;20264;-74
2023/04/06 06:26:26;;;;;;;12.77;6.60;;;-0.40;99.90;;;;;;5069630;28;20644;-75
2023/04/06 06:28:51;;;;;;;15.93;7.50;;;-0.40;99.90;;;;;;5067560;28;20219;-74
2023/04/06 06:31:20;;;;;;;23.40;7.70;;;-0.30;99.90;;;;;;5068748;28;20189;-78
2023/04/06 06:33:46;;;;;;;9.17;5.13;;;-0.20;99.90;;;;;;5069347;28;20189;-75
2023/04/06 06:36:11;;;;;;;10.70;5.77;;;-0.10;99.90;;;;;;5061363;28;20472;-77
2023/04/06 06:38:38;;;;;;;11.53;5.57;;;0.00;99.70;;;;;;5065446;28;20189;-77
2023/04/06 06:41:03;;;;;;;14.73;6.43;;;0.20;99.70;;;;;;5083380;28;20180;-77
2023/04/06 06:43:29;;;;;;;13.70;7.03;;;0.30;99.40;;;;;;5065255;28;20471;-76
2023/04/06 06:45:54;;;;;;;13.90;5.37;;;0.50;99.30;;;;;;5062506;28;20237;-77
2023/04/06 06:48:20;;;;;;;8.80;6.13;;;0.60;99.10;;;;;;5044269;28;20177;-73
2023/04/06 06:50:48;;;;;;;15.50;6.10;;;0.80;99.00;;;;;;5056311;28;20204;-76
2023/04/06 06:53:14;;;;;;;10.97;6.10;;;1.10;98.70;;;;;;5080989;28;20750;-74
2023/04/06 06:55:40;;;;;;;13.30;6.00;;;1.30;98.30;;;;;;5067874;28;20454;-74
2023/04/06 06:58:06;;;;;;;14.40;6.07;;;1.60;98.20;;;;;;5068536;28;21178;-72
2023/04/06 07:00:32;;;;;;;12.90;5.67;;;1.80;97.60;;;;;;5065282;28;20188;-76
2023/04/06 07:02:58;;;;;;;12.63;4.60;;;2.10;96.40;;;;;;5065485;28;21012;-74
2023/04/06 07:05:23;;;;;;;8.13;4.07;;;2.30;96.10;;;;;;5066285;28;20454;-77
2023/04/06 07:07:49;;;;;;;7.93;4.00;;;2.60;94.90;;;;;;5064745;28;20188;-76
2023/04/06 07:10:15;;;;;;;14.90;4.87;;;2.90;94.30;;;;;;5067679;28;20270;-76
2023/04/06 07:12:40;;;;;;;9.80;4.77;;;3.10;94.40;;;;;;5068834;28;20680;-75
2023/04/06 07:15:07;;;;;;;9.33;4.77;;;3.40;94.90;;;;;;5073847;28;20173;-75
2023/04/06 07:17:32;;;;;;;9.43;4.10;;;3.90;94.20;;;;;;5090945;28;20181;-80
2023/04/06 07:19:58;;;;;;;7.07;4.00;;;4.20;93.60;;;;;;5091018;28;20438;-80
2023/04/06 07:22:24;;;;;;;6.93;3.80;;;4.60;93.40;;;;;;5087804;28;20231;-80
2023/04/06 07:24:50;;;;;;;9.87;5.00;;;5.00;92.40;;;;;;5090058;28;20173;-81
2023/04/06 07:27:16;;;;;;;8.13;3.90;;;5.50;91.80;;;;;;5088507;28;20196;-75
2023/04/06 07:29:42;;;;;;;6.43;3.83;;;6.50;90.70;;;;;;5082971;28;20181;-78
2023/04/06 07:32:07;;;;;;;16.10;4.57;;;7.40;82.30;;;;;;5082743;28;21020;-75
2023/04/06 07:34:33;;;;;;;6.00;3.50;;;7.90;78.70;;;;;;5074814;28;20598;-74
2023/04/06 07:37:00;;;;;;;6.63;3.43;;;8.80;76.90;;;;;;5072526;28;20181;-74
2023/04/06 07:39:26;;;;;;;10.30;3.50;;;9.30;73.90;;;;;;5070979;28;20185;-76
2023/04/06 07:41:52;;;;;;;7.87;3.53;;;9.70;71.70;;;;;;5065897;28;20470;-76
2023/04/06 07:44:18;;;;;;;10.70;3.23;;;10.60;68.10;;;;;;5067104;28;20404;-75
2023/04/06 07:46:43;;;;;;;5.70;3.47;;;10.70;66.70;;;;;;5069136;28;20547;-75
2023/04/06 07:49:09;;;;;;;4.00;2.80;;;10.90;65.50;;;;;;5068323;28;20647;-75
2023/04/06 07:51:39;;;;;;;9.10;4.30;;;10.80;63.40;;;;;;5066212;28;20566;-75
2023/04/06 07:54:05;;;;;;;12.23;3.77;;;11.20;62.80;;;;;;5066205;28;20185;-73
2023/04/06 07:56:30;;;;;;;6.97;3.13;;;11.70;62.10;;;;;;5063661;28;20481;-75
2023/04/06 07:58:57;;;;;;;6.30;3.10;;;11.80;61.90;;;;;;5081745;28;20419;-76
2023/04/06 08:01:23;;;;;;;5.30;3.30;;;12.30;62.20;;;;;;5067158;28;20181;-77
2023/04/06 08:03:50;;;;;;;5.80;4.00;;;12.20;60.70;;;;;;5069585;28;20427;-77
2023/04/06 08:06:16;;;;;;;7.27;3.30;;;12.90;58.50;;;;;;5067551;28;20442;-76
2023/04/06 08:08:42;;;;;;;7.83;4.17;;;12.50;59.30;;;;;;5072556;28;20823;-77
2023/04/06 08:11:08;;;;;;;8.90;3.50;;;12.60;58.30;;;;;;5069349;28;20205;-78
2023/04/06 08:13:35;;;;;;;9.23;3.47;;;12.80;58.60;;;;;;5072059;28;21033;-76
2023/04/06 08:16:01;;;;;;;5.20;2.93;;;13.20;58.30;;;;;;5072826;28;20216;-75
2023/04/06 08:18:26;;;;;;;7.20;3.23;;;13.10;57.60;;;;;;5070705;28;20462;-75
2023/04/06 08:20:52;;;;;;;10.63;3.17;;;13.40;59.10;;;;;;5068147;28;20280;-76
2023/04/06 08:23:17;;;;;;;7.17;4.17;;;13.60;55.90;;;;;;5070404;28;20669;-74
2023/04/06 08:25:43;;;;;;;6.27;3.43;;;13.90;56.20;;;;;;5071922;28;20199;-75
2023/04/06 08:28:09;;;;;;;7.20;4.00;;;13.70;56.20;;;;;;5072114;28;20177;-76
2023/04/06 08:30:35;;;;;;;9.93;4.07;;;13.90;54.80;;;;;;5070147;28;20699;-76
2023/04/06 08:33:01;;;;;;;5.63;3.43;;;14.30;54.40;;;;;;5068921;28;20288;-77
2023/04/06 08:35:27;;;;;;;7.83;3.97;;;13.50;55.20;;;;;;5069903;28;20522;-76
2023/04/06 08:37:53;;;;;;;7.60;3.80;;;13.80;55.30;;;;;;5069299;28;20284;-76
2023/04/06 08:40:19;;;;;;;7.40;3.60;;;13.50;55.00;;;;;;5067618;28;21025;-76
2023/04/06 08:42:51;;;;;;;3.60;2.70;;;13.30;55.80;;;;;;5064070;28;20209;-75
2023/04/06 08:45:20;;;;;;;9.73;4.90;;;13.10;54.50;;;;;;5055566;28;20216;-77
2023/04/06 08:47:53;;;;;;;6.50;4.17;;;13.70;52.70;;;;;;5066055;28;20428;-77
2023/04/06 08:50:19;;;;;;;13.10;4.40;;;14.30;50.80;;;;;;5065404;28;20876;-77
2023/04/06 08:52:48;;;;;;;9.50;3.83;;;14.30;49.00;;;;;;5053908;28;20463;-76
2023/04/06 08:55:15;;;;;;;7.20;3.90;;;14.00;49.40;;;;;;5063180;28;20211;-75
2023/04/06 08:57:41;;;;;;;6.53;3.83;;;14.00;52.00;;;;;;5068368;28;20435;-76
2023/04/06 09:00:09;;;;;;;6.13;3.13;;;14.10;50.70;;;;;;5070255;28;20847;-77
2023/04/06 09:02:40;;;;;;;7.17;4.10;;;13.60;51.70;;;;;;5067986;28;20475;-77
2023/04/06 09:05:08;;;;;;;5.77;3.33;;;13.30;53.40;;;;;;5069438;28;20839;-76
2023/04/06 09:07:35;;;;;;;11.03;4.00;;;13.80;51.60;;;;;;5070370;28;20989;-76
2023/04/06 09:10:00;;;;;;;7.80;3.50;;;13.30;53.90;;;;;;5072573;28;20526;-77
2023/04/06 09:12:28;;;;;;;7.37;4.30;;;13.30;53.00;;;;;;5069846;28;20526;-76
2023/04/06 09:14:54;;;;;;;12.70;3.53;;;13.80;51.30;;;;;;5070927;28;20264;-75
2023/04/06 09:17:24;;;;;;;6.30;3.73;;;13.50;51.50;;;;;;5070384;28;20868;-76
2023/04/06 09:19:50;;;;;;;6.60;3.17;;;13.40;51.60;;;;;;5070418;28;20466;-75
2023/04/06 09:22:16;;;;;;;4.13;2.40;;;13.40;50.80;;;;;;5069426;28;20462;-75
2023/04/06 09:24:52;;;;;;;6.23;3.40;;;13.70;49.60;;;;;;5070523;28;20807;-75
2023/04/06 09:27:33;;;;;;;7.13;4.00;;;13.60;50.90;;;;;;5071126;28;20426;-75
2023/04/06 09:30:15;;;;;;;6.57;3.50;;;13.70;50.70;;;;;;5067240;28;20442;-77
2023/04/06 09:32:49;;;;;;;8.47;4.47;;;13.50;51.70;;;;;;5067264;28;20462;-77
2023/04/06 09:35:15;;;;;;;11.93;3.73;;;13.00;52.30;;;;;;5069561;28;20445;-77
2023/04/06 09:37:44;;;;;;;5.63;3.43;;;13.00;52.20;;;;;;5070712;28;21048;-75
2023/04/06 09:40:10;;;;;;;4.43;2.47;;;13.40;51.50;;;;;;5070781;28;20184;-76
2023/04/06 09:42:36;;;;;;;9.93;4.17;;;13.20;51.80;;;;;;5070280;28;20566;-75
2023/04/06 09:45:02;;;;;;;7.80;3.20;;;13.00;49.90;;;;;;5073062;28;20518;-77
2023/04/06 09:47:32;;;;;;;7.23;3.17;;;12.50;51.90;;;;;;5072283;28;20204;-77
2023/04/06 09:49:59;;;;;;;8.17;3.10;;;13.00;51.60;;;;;;5074300;28;20419;-77
2023/04/06 09:52:37;;;;;;;6.30;3.13;;;13.00;51.10;;;;;;5072112;28;20443;-78
2023/04/06 09:55:05;;;;;;;5.43;2.70;;;12.90;51.10;;;;;;5070845;28;20527;-77
2023/04/06 09:57:42;;;;;;;4.37;2.60;;;12.90;51.10;;;;;;5072014;28;20434;-74
2023/04/06 10:00:16;;;;;;;8.43;3.27;;;12.90;50.10;;;;;;5071115;28;20428;-74
2023/04/06 10:02:55;;;;;;;9.10;2.90;;;12.50;49.70;;;;;;5068497;28;20471;-74
2023/04/06 10:05:40;;;;;;;4.53;2.40;;;12.10;50.90;;;;;;5070747;28;20443;-75
2023/04/06 10:08:09;;;;;;;7.30;3.03;;;11.80;50.80;;;;;;5072248;28;20407;-74
2023/04/06 10:10:35;;;;;;;4.50;2.20;;;11.70;52.60;;;;;;5070037;28;20937;-74
2023/04/06 10:13:03;;;;;;;6.23;3.00;;;11.60;53.40;;;;;;5071230;28;20439;-74
2023/04/06 10:15:30;;;;;;;5.53;2.70;;;11.70;55.10;;;;;;5070662;28;20966;-76
2023/04/06 10:17:58;;;;;;;5.53;2.70;;;11.60;53.60;;;;;;5071829;28;20937;-75
2023/04/06 10:20:42;;;;;;;7.13;3.03;;;11.70;55.50;;;;;;5069040;28;20423;-74
2023/04/06 10:23:08;;;;;;;8.70;3.33;;;11.90;52.00;;;;;;5070280;28;21064;-74
2023/04/06 10:25:34;;;;;;;18.60;2.90;;;11.90;52.00;;;;;;5070496;28;20458;-75
2023/04/06 10:28:08;;;;;;;7.03;2.70;;;11.70;52.60;;;;;;5068888;28;20179;-74
2023/04/06 10:30:35;;;;;;;3.97;2.43;;;11.70;53.00;;;;;;5070109;28;20518;-77
2023/04/06 10:33:12;;;;;;;8.70;3.80;;;11.50;51.80;;;;;;5070163;28;20436;-75
2023/04/06 10:35:38;;;;;;;7.40;2.93;;;11.50;53.10;;;;;;5071735;28;20407;-76
2023/04/06 10:38:05;;;;;;;6.50;3.40;;;11.50;51.90;;;;;;5069940;28;20537;-76
2023/04/06 10:40:31;;;;;;;6.83;2.97;;;11.50;50.70;;;;;;5071192;28;20416;-75
2023/04/06 10:43:08;;;;;;;6.27;3.40;;;11.50;53.00;;;;;;5071678;28;20459;-75
2023/04/06 10:45:35;;;;;;;5.87;2.93;;;11.70;50.70;;;;;;5070959;28;20425;-76
2023/04/06 10:48:12;;;;;;;5.07;2.87;;;11.60;51.50;;;;;;5071790;28;20935;-76
2023/04/06 10:50:39;;;;;;;6.67;2.70;;;11.80;50.30;;;;;;5069711;28;20468;-74
2023/04/06 10:53:06;;;;;;;6.43;3.10;;;11.60;50.20;;;;;;5068991;28;20530;-73
2023/04/06 10:55:32;;;;;;;4.80;2.30;;;11.70;50.40;;;;;;5068491;28;20426;-71
2023/04/06 10:57:57;;;;;;;12.30;4.07;;;11.90;49.30;;;;;;5081188;28;20449;-80
2023/04/06 11:00:23;;;;;;;7.37;3.27;;;11.90;50.50;;;;;;5093384;28;20439;-79
2023/04/06 11:02:49;;;;;;;5.10;2.77;;;11.70;51.70;;;;;;5093203;28;20246;-80
2023/04/06 11:05:15;;;;;;;5.00;2.70;;;12.00;50.60;;;;;;5092500;28;20185;-80
2023/04/06 11:07:41;;;;;;;8.13;3.37;;;12.20;50.00;;;;;;5091496;28;20200;-80
2023/04/06 11:10:10;;;;;;;3.60;2.33;;;12.30;49.30;;;;;;5093024;28;20173;-79
2023/04/06 11:12:35;;;;;;;6.23;3.23;;;12.20;51.90;;;;;;5074204;28;20451;-76
2023/04/06 11:15:06;;;;;;;5.23;2.67;;;12.20;49.30;;;;;;5070445;28;20420;-76
2023/04/06 11:17:36;;;;;;;5.90;3.13;;;12.10;50.20;;;;;;5071327;28;20173;-78
2023/04/06 11:20:04;;;;;;;5.20;3.07;;;12.20;49.80;;;;;;5070063;28;20423;-75
2023/04/06 11:22:31;;;;;;;5.60;2.97;;;12.10;49.80;;;;;;5069689;28;20475;-75
2023/04/06 11:25:07;;;;;;;13.77;4.43;;;12.20;53.70;;;;;;5070578;28;20455;-75
2023/04/06 11:27:34;;;;;;;6.73;3.33;;;12.40;53.80;;;;;;5070796;28;20902;-76
2023/04/06 11:30:01;;;;;;;5.90;3.30;;;12.40;51.60;;;;;;5070553;28;20506;-75
2023/04/06 11:32:27;;;;;;;3.70;2.43;;;12.70;50.60;;;;;;5070581;28;20587;-76
2023/04/06 11:34:53;;;;;;;8.50;3.47;;;13.00;49.30;;;;;;5071464;28;20407;-77
2023/04/06 11:37:19;;;;;;;8.27;3.10;;;13.00;49.10;;;;;;5074811;28;20773;-74
2023/04/06 11:39:50;;;;;;;11.27;4.80;;;12.90;48.80;;;;;;5075216;28;20184;-70
2023/04/06 11:42:27;;;;;;;9.23;3.53;;;12.60;49.60;;;;;;5072909;28;20462;-74
2023/04/06 11:45:00;;;;;;;17.87;4.10;;;12.60;50.20;;;;;;5073784;28;20442;-77
2023/04/06 11:47:35;;;;;;;12.37;3.63;;;12.50;51.00;;;;;;5073366;28;20419;-75
2023/04/06 11:50:12;;;;;;;10.13;4.03;;;12.50;51.20;;;;;;5070743;28;20403;-75
2023/04/06 11:52:40;;;;;;;6.70;2.97;;;12.60;49.60;;;;;;5089038;28;20524;-75
2023/04/06 11:55:18;;;;;;;5.23;3.20;;;13.00;48.50;;;;;;5073524;28;20621;-76
2023/04/06 11:57:49;;;;;;;9.20;4.97;;;13.00;50.20;;;;;;5071051;28;20930;-75
2023/04/06 12:00:15;;;;;;;9.17;4.20;;;13.00;51.80;;;;;;5091195;28;21004;-76
2023/04/06 12:02:45;;;;;;;6.50;3.23;;;13.00;49.10;;;;;;5071205;28;20462;-75
2023/04/06 12:05:11;;;;;;;8.07;2.90;;;12.70;47.70;;;;;;5072229;28;21023;-76
2023/04/06 12:07:37;;;;;;;3.70;2.20;;;12.60;50.80;;;;;;5073886;28;20418;-75
2023/04/06 12:10:04;;;;;;;5.23;2.93;;;12.60;50.80;;;;;;5070564;28;20415;-76
2023/04/06 12:12:30;;;;;;;8.37;2.90;;;12.90;46.50;;;;;;5070374;28;20435;-76
2023/04/06 12:14:56;;;;;;;10.67;3.63;;;13.00;45.80;;;;;;5070431;28;20930;-76
2023/04/06 12:17:21;;;;;;;5.43;2.93;;;12.80;49.10;;;;;;5074945;28;20268;-77
2023/04/06 12:19:47;;;;;;;7.03;2.87;;;12.90;49.10;;;;;;5069693;28;20490;-75
2023/04/06 12:22:13;;;;;;;5.83;2.70;;;12.90;47.70;;;;;;5071892;28;20201;-76
2023/04/06 12:24:38;;;;;;;6.50;2.40;;;13.00;46.70;;;;;;5072335;28;20169;-79
2023/04/06 12:27:04;;;;;;;12.70;2.40;;;13.10;46.50;;;;;;5074122;28;20177;-78
2023/04/06 12:29:30;;;;;;;7.23;2.50;;;13.20;45.60;;;;;;5075175;28;20184;-75
2023/04/06 12:31:57;;;;;;;5.37;3.00;;;13.30;48.30;;;;;;5074276;28;20525;-75
2023/04/06 12:34:23;;;;;;;4.93;2.60;;;13.50;46.40;;;;;;5074972;28;20276;-76
2023/04/06 12:36:48;;;;;;;10.63;2.60;;;13.40;45.80;;;;;;5073400;28;20515;-75
2023/04/06 12:39:14;;;;;;;14.17;2.73;;;13.20;45.90;;;;;;5073822;28;20514;-75
2023/04/06 12:41:42;;;;;;;5.30;2.50;;;13.20;46.80;;;;;;5076192;28;20189;-74
2023/04/06 12:44:08;;;;;;;10.80;3.30;;;13.30;48.50;;;;;;5077872;28;20173;-76